Time,TemperatureF,DewpointF,PressureIn,WindDirection,WindDirectionDegrees,WindSpeedMPH,WindSpeedGustMPH,Humidity,HourlyPrecipIn,Conditions,Clouds,dailyrainin,SolarRadiationWatts/m^2,SoftwareType,DateUTC
2013-09-05 00:00:00,68.0,53.0,-100.00,SSW,213,6.0,14.0,60,-99.99,,,0.00,0.000000,,2013-09-05 07:00:00,
2013-09-05 00:52:00,68.0,53.0,-100.00,SSW,213,6.0,14.0,60,-99.99,,,0.00,0.000000,,2013-09-05 07:52:00,
2013-09-05 03:00:00,66.0,56.0,-100.00,SSW,196,6.0,16.0,68,-99.99,,,0.00,0.000000,,2013-09-05 10:00:00,
2013-09-05 03:43:00,66.0,56.0,-100.00,SSW,196,6.0,16.0,68,-99.99,,,0.00,0.000000,,2013-09-05 10:43:00,
2013-09-05 03:53:00,66.0,56.0,-100.00,SSW,196,6.0,16.0,68,-99.99,,,0.00,0.000000,,2013-09-05 10:53:00,
2013-09-05 05:00:00,67.0,54.0,-100.00,SSW,213,6.0,18.0,61,-99.99,,,0.00,0.000000,,2013-09-05 12:00:00,
2013-09-05 05:42:00,67.0,54.0,-100.00,SSW,213,6.0,18.0,61,-99.99,,,0.00,0.000000,,2013-09-05 12:42:00,
2013-09-05 05:52:00,67.0,54.0,-100.00,SSW,213,6.0,18.0,61,-99.99,,,0.00,0.000000,,2013-09-05 12:52:00,
2013-09-05 06:00:00,67.0,54.0,-100.00,SW,220,5.0,12.0,62,-99.99,,,0.00,0.000000,,2013-09-05 13:00:00,
2013-09-05 06:53:00,67.0,54.0,-100.00,SW,220,5.0,12.0,62,-99.99,,,0.00,0.000000,,2013-09-05 13:53:00,
2013-09-05 07:00:00,66.0,55.0,-100.00,WNW,283,3.0,10.0,68,-99.99,,,0.00,19.290001,,2013-09-05 14:00:00,
2013-09-05 07:42:00,66.0,55.0,-100.00,WNW,283,3.0,10.0,68,-99.99,,,0.00,19.290001,,2013-09-05 14:42:00,
2013-09-05 07:52:00,66.0,55.0,-100.00,WNW,283,3.0,10.0,68,-99.99,,,0.00,19.290001,,2013-09-05 14:52:00,
2013-09-05 08:00:00,66.0,54.0,-100.00,SSW,211,5.0,15.0,65,-99.99,,,0.00,63.689999,,2013-09-05 15:00:00,
2013-09-05 08:44:00,66.0,54.0,-100.00,SSW,211,5.0,15.0,65,-99.99,,,0.00,63.689999,,2013-09-05 15:44:00,
2013-09-05 08:54:00,66.0,54.0,-100.00,SSW,211,5.0,15.0,65,-99.99,,,0.00,63.689999,,2013-09-05 15:54:00,
2013-09-05 09:00:00,69.0,55.0,-100.00,SSW,203,7.0,18.0,61,-99.99,,,0.00,386.320007,,2013-09-05 16:00:00,
2013-09-05 09:43:00,69.0,55.0,-100.00,SSW,203,7.0,18.0,61,-99.99,,,0.00,386.320007,,2013-09-05 16:43:00,
2013-09-05 09:54:00,69.0,55.0,-100.00,SSW,203,7.0,18.0,61,-99.99,,,0.00,386.320007,,2013-09-05 16:54:00,
2013-09-05 10:00:00,70.0,55.0,-100.00,SSW,202,8.0,18.0,59,-99.99,,,0.00,537.289978,,2013-09-05 17:00:00,
2013-09-05 10:43:00,70.0,55.0,-100.00,SSW,202,8.0,18.0,59,-99.99,,,0.00,537.289978,,2013-09-05 17:43:00,
2013-09-05 10:52:00,70.0,55.0,-100.00,SSW,202,8.0,18.0,59,-99.99,,,0.00,537.289978,,2013-09-05 17:52:00,
2013-09-05 13:00:00,71.0,56.0,-100.00,SSW,201,8.0,18.0,58,-99.99,,,0.00,352.959991,,2013-09-05 20:00:00,
2013-09-05 13:42:00,71.0,56.0,-100.00,SSW,201,8.0,18.0,58,-99.99,,,0.00,352.959991,,2013-09-05 20:42:00,
2013-09-05 13:52:00,71.0,56.0,-100.00,SSW,201,8.0,18.0,58,-99.99,,,0.00,352.959991,,2013-09-05 20:52:00,
2013-09-05 14:00:00,70.0,56.0,-100.00,SSW,204,10.0,22.0,59,-99.99,,,0.00,379.920013,,2013-09-05 21:00:00,
2013-09-05 14:44:00,70.0,56.0,-100.00,SSW,204,10.0,22.0,59,-99.99,,,0.00,379.920013,,2013-09-05 21:44:00,
2013-09-05 14:54:00,70.0,56.0,-100.00,SSW,204,10.0,22.0,59,-99.99,,,0.00,379.920013,,2013-09-05 21:54:00,
2013-09-05 15:00:00,72.0,56.0,-100.00,SSW,197,10.0,21.0,58,-99.99,,,0.00,836.900024,,2013-09-05 22:00:00,
2013-09-05 15:43:00,72.0,56.0,-100.00,SSW,197,10.0,21.0,58,-99.99,,,0.00,836.900024,,2013-09-05 22:43:00,
2013-09-05 15:53:00,72.0,56.0,-100.00,SSW,197,10.0,21.0,58,-99.99,,,0.00,836.900024,,2013-09-05 22:53:00,
2013-09-05 17:00:00,68.0,55.0,-100.00,SSW,202,9.0,22.0,63,-99.99,,,0.00,216.869995,,2013-09-06 00:00:00,
2013-09-05 17:42:00,68.0,55.0,-100.00,SSW,202,9.0,22.0,63,-99.99,,,0.00,216.869995,,2013-09-06 00:42:00,
2013-09-05 17:52:00,68.0,55.0,-100.00,SSW,202,9.0,22.0,63,-99.99,,,0.00,216.869995,,2013-09-06 00:52:00,
2013-09-05 18:00:00,62.0,57.0,-100.00,SW,220,5.0,20.0,83,-99.99,,,0.01,3.140000,,2013-09-06 01:00:00,
2013-09-05 18:52:00,62.0,57.0,-100.00,SW,220,5.0,20.0,83,-99.99,,,0.01,3.140000,,2013-09-06 01:52:00,
2013-09-05 19:00:00,60.0,55.0,-100.00,South,174,4.0,10.0,81,-99.99,,,0.01,1.510000,,2013-09-06 02:00:00,
2013-09-05 19:42:00,60.0,55.0,-100.00,South,174,4.0,10.0,81,-99.99,,,0.01,1.510000,,2013-09-06 02:42:00,
2013-09-05 19:52:00,60.0,55.0,-100.00,South,174,4.0,10.0,81,-99.99,,,0.01,1.510000,,2013-09-06 02:52:00,
2013-09-05 20:00:00,59.0,56.0,-100.00,SW,233,2.0,6.0,92,-99.99,,,0.01,0.000000,,2013-09-06 03:00:00,
2013-09-05 20:44:00,59.0,56.0,-100.00,SW,233,2.0,6.0,92,-99.99,,,0.01,0.000000,,2013-09-06 03:44:00,
2013-09-05 20:55:00,59.0,56.0,-100.00,SW,233,2.0,6.0,92,-99.99,,,0.01,0.000000,,2013-09-06 03:55:00,
2013-09-05 21:00:00,58.0,56.0,-100.00,WNW,288,1.0,5.0,92,-99.99,,,0.01,0.000000,,2013-09-06 04:00:00,
2013-09-05 21:44:00,58.0,56.0,-100.00,WNW,288,1.0,5.0,92,-99.99,,,0.01,0.000000,,2013-09-06 04:44:00,
2013-09-05 21:54:00,58.0,56.0,-100.00,WNW,288,1.0,5.0,92,-99.99,,,0.01,0.000000,,2013-09-06 04:54:00,
2013-09-05 22:00:00,56.0,54.0,-100.00,ENE,67,1.0,4.0,92,-99.99,,,0.01,0.000000,,2013-09-06 05:00:00,
2013-09-05 22:42:00,56.0,54.0,-100.00,ENE,67,1.0,4.0,92,-99.99,,,0.01,0.000000,,2013-09-06 05:42:00,
2013-09-05 22:52:00,56.0,54.0,-100.00,ENE,67,1.0,4.0,92,-99.99,,,0.01,0.000000,,2013-09-06 05:52:00,